Time;durP1;ratioP1;P1;durP2;ratioP2;P2;SDS_P1;SDS_P2;PMS_P1;PMS_P2;Temp;Humidity;BMP_temperature;BMP_pressure;BME280_temperature;BME280_humidity;BME280_pressure;Samples;Min_cycle;Max_cycle;Signal;HPM_P1;HPM_P2
2023/01/03 00:01:44;;;;;;;26.67;12.50;;;;;;;3.37;100.00;102575.84;5067519;28;20059;-78
2023/01/03 00:04:10;;;;;;;22.42;12.18;;;;;;;3.31;100.00;102575.63;5069519;28;20056;-78
2023/01/03 00:06:44;;;;;;;23.52;11.73;;;;;;;3.22;100.00;102573.59;5074795;28;20055;-78
2023/01/03 00:09:12;;;;;;;20.65;11.40;;;;;;;3.13;100.00;102560.41;5066262;28;20060;-78
2023/01/03 00:14:29;;;;;;;23.95;11.70;;;;;;;3.05;100.00;102560.16;5069159;28;20090;-78
2023/01/03 00:16:57;;;;;;;22.90;12.50;;;;;;;3.06;100.00;102558.44;5071897;28;20033;-77
2023/01/03 00:19:24;;;;;;;25.95;12.80;;;;;;;3.12;100.00;102574.13;5067807;28;20487;-78
2023/01/03 00:21:49;;;;;;;25.08;13.65;;;;;;;3.09;100.00;102567.97;5070881;28;20039;-78
2023/01/03 00:24:15;;;;;;;23.17;12.90;;;;;;;3.08;100.00;102566.25;5070826;28;20048;-77
2023/01/03 00:26:42;;;;;;;25.58;13.45;;;;;;;3.05;100.00;102557.56;5072106;28;20060;-77
2023/01/03 00:29:08;;;;;;;26.60;13.90;;;;;;;2.98;100.00;102563.34;5069903;28;20028;-77
2023/01/03 00:31:35;;;;;;;28.95;13.18;;;;;;;2.93;100.00;102570.00;5062029;28;20035;-77
2023/01/03 00:34:00;;;;;;;28.92;13.52;;;;;;;2.87;100.00;102562.06;5066469;28;20375;-77
2023/01/03 00:36:26;;;;;;;23.98;13.45;;;;;;;2.81;100.00;102567.91;5064936;28;20028;-77
2023/01/03 00:38:51;;;;;;;30.85;13.40;;;;;;;2.80;100.00;102575.53;5071782;28;20112;-77
2023/01/03 00:41:18;;;;;;;26.13;13.90;;;;;;;2.74;100.00;102570.16;5069610;28;20475;-77
2023/01/03 00:43:45;;;;;;;31.73;14.27;;;;;;;2.64;100.00;102568.97;5069853;28;20107;-77
2023/01/03 00:46:13;;;;;;;26.90;13.52;;;;;;;2.68;100.00;102586.31;5065744;28;20074;-77
2023/01/03 00:48:39;;;;;;;25.52;14.05;;;;;;;2.66;100.00;102587.94;5059098;28;20032;-77
2023/01/03 00:51:10;;;;;;;26.85;14.05;;;;;;;2.59;100.00;102588.53;5063770;28;20024;-77
2023/01/03 00:53:37;;;;;;;34.10;14.85;;;;;;;2.57;100.00;102595.31;5067206;28;20051;-78
2023/01/03 00:56:05;;;;;;;23.45;13.98;;;;;;;2.53;100.00;102594.31;5069632;28;20021;-78
2023/01/03 00:58:31;;;;;;;28.38;14.52;;;;;;;2.50;100.00;102583.91;5068631;28;20028;-78
2023/01/03 01:01:04;;;;;;;28.52;14.25;;;;;;;2.47;100.00;102590.63;5066181;28;20053;-77
2023/01/03 01:03:29;;;;;;;29.02;14.25;;;;;;;2.47;100.00;102590.63;5055821;28;20112;-77
2023/01/03 01:05:54;;;;;;;30.08;15.00;;;;;;;2.47;100.00;102595.78;5071497;28;20194;-78
2023/01/03 01:08:19;;;;;;;31.88;15.45;;;;;;;2.44;100.00;102591.38;5063005;28;20032;-78
2023/01/03 01:11:00;;;;;;;30.17;14.85;;;;;;;2.42;100.00;102589.56;5071824;28;20028;-78
2023/01/03 01:13:30;;;;;;;26.88;14.73;;;;;;;2.43;100.00;102597.38;5067228;28;20029;-78
2023/01/03 01:15:59;;;;;;;31.52;16.08;;;;;;;2.39;100.00;102600.66;5055995;28;20092;-77
2023/01/03 01:18:25;;;;;;;30.33;15.93;;;;;;;2.35;100.00;102601.34;5061968;28;20032;-77
2023/01/03 01:20:50;;;;;;;41.67;17.15;;;;;;;2.33;100.00;102608.13;5067715;28;20029;-77
2023/01/03 01:23:15;;;;;;;30.77;16.58;;;;;;;2.31;100.00;102604.63;5060986;28;20044;-77
2023/01/03 01:25:41;;;;;;;31.25;15.50;;;;;;;2.30;100.00;102615.75;5064039;28;20024;-77
2023/01/03 01:28:07;;;;;;;27.05;15.80;;;;;;;2.19;100.00;102604.13;5056341;28;20027;-78
2023/01/03 01:30:32;;;;;;;28.50;15.60;;;;;;;2.19;100.00;102606.69;5055976;28;20036;-78
2023/01/03 01:32:57;;;;;;;26.55;15.63;;;;;;;2.15;100.00;102615.13;5066879;28;20020;-78
2023/01/03 01:35:22;;;;;;;29.65;16.30;;;;;;;2.11;100.00;102617.56;5071235;28;20027;-78
2023/01/03 01:37:48;;;;;;;29.75;16.48;;;;;;;2.07;100.00;102619.97;5068418;28;20021;-78
2023/01/03 01:40:13;;;;;;;27.83;16.30;;;;;;;2.03;100.00;102625.84;5069327;28;20041;-78
2023/01/03 01:45:22;;;;;;;;;;;;;;;1.96;100.00;102628.94;5063322;28;20047;-78
2023/01/03 01:47:55;;;;;;;27.05;15.30;;;;;;;1.91;100.00;102630.47;5059497;28;19917;-78
2023/01/03 01:50:43;;;;;;;32.40;16.40;;;;;;;1.87;100.00;102639.75;5064339;28;20016;-78
2023/01/03 01:53:19;;;;;;;32.85;16.55;;;;;;;1.81;100.00;102631.78;5065510;28;20025;-78
2023/01/03 01:56:09;;;;;;;30.83;16.67;;;;;;;1.83;100.00;102640.44;5062180;28;20047;-78
2023/01/03 01:58:37;;;;;;;29.23;15.63;;;;;;;1.81;100.00;102642.94;5070320;28;20040;-78
2023/01/03 02:01:05;;;;;;;22.77;15.52;;;;;;;1.80;100.00;102645.47;5064472;28;20025;-78
2023/01/03 02:03:31;;;;;;;29.67;14.65;;;;;;;1.69;100.00;102631.28;5066792;28;20024;-78
2023/01/03 02:06:00;;;;;;;30.27;16.25;;;;;;;1.71;100.00;102639.94;5065350;28;20052;-78
2023/01/03 02:08:26;;;;;;;32.92;16.15;;;;;;;1.62;100.00;102628.44;5064331;28;20036;-78
2023/01/03 02:10:59;;;;;;;24.75;16.15;;;;;;;1.63;100.00;102637.94;5073871;28;20033;-78
2023/01/03 02:13:43;;;;;;;;;;;;;;;1.61;100.00;102638.69;5062765;28;20453;-78
2023/01/03 02:16:17;;;;;;;32.40;15.73;;;;;;;1.51;100.00;102622.00;5059983;28;20015;-78
2023/01/03 02:18:50;;;;;;;25.73;15.43;;;;;;;1.55;100.00;102628.13;5059769;28;20515;-78
2023/01/03 02:21:43;;;;;;;26.63;15.60;;;;;;;1.52;100.00;102635.72;5061910;28;20037;-78
2023/01/03 02:24:32;;;;;;;29.13;16.73;;;;;;;1.49;100.00;102651.88;5069180;28;20539;-78
2023/01/03 02:27:00;;;;;;;30.45;16.73;;;;;;;1.53;100.00;102651.19;5069239;28;20463;-78
2023/01/03 02:29:34;;;;;;;30.45;16.77;;;;;;;1.53;100.00;102651.19;5066313;28;20099;-78
2023/01/03 02:32:14;;;;;;;26.92;16.40;;;;;;;1.50;100.00;102651.06;5058532;28;20029;-78
2023/01/03 02:35:23;;;;;;;40.85;17.52;;;;;;;1.52;100.00;102658.84;5061055;28;20033;-79
2023/01/03 02:38:07;;;;;;;31.13;16.63;;;;;;;1.55;100.00;102654.72;5018850;28;20051;-78
2023/01/03 02:40:43;;;;;;;34.75;17.40;;;;;;;1.50;100.00;102637.34;5072141;28;20059;-78
2023/01/03 02:43:19;;;;;;;32.95;16.95;;;;;;;1.56;100.00;102641.03;5070255;28;20119;-78
2023/01/03 02:46:07;;;;;;;35.45;16.67;;;;;;;1.54;100.00;102645.25;5072516;28;20032;-78
2023/01/03 02:48:58;;;;;;;31.33;16.17;;;;;;;1.59;100.00;102651.47;5070735;28;20031;-78
2023/01/03 02:51:40;;;;;;;36.78;16.88;;;;;;;1.55;100.00;102636.72;5064317;28;20383;-78
2023/01/03 02:54:10;;;;;;;34.58;17.00;;;;;;;1.61;100.00;102642.13;5074988;28;20020;-78
2023/01/03 02:56:48;;;;;;;38.20;17.38;;;;;;;1.61;100.00;102638.69;5074984;28;20107;-78
2023/01/03 02:59:20;;;;;;;32.72;17.52;;;;;;;1.66;100.00;102649.16;5060635;28;20032;-78
2023/01/03 03:01:49;;;;;;;41.60;18.38;;;;;;;1.66;100.00;102644.00;5062445;28;20032;-78
2023/01/03 03:04:15;;;;;;;37.00;17.75;;;;;;;1.58;100.00;102639.44;5064335;28;20031;-78
2023/01/03 03:06:48;;;;;;;33.10;17.27;;;;;;;1.53;100.00;102634.91;5071554;28;20049;-79
2023/01/03 03:09:14;;;;;;;40.92;19.30;;;;;;;1.58;100.00;102634.28;5072770;28;20070;-79
2023/01/03 03:14:42;;;;;;;36.83;16.92;;;;;;;1.52;100.00;102643.44;5066583;28;20042;-78
2023/01/03 03:17:13;;;;;;;35.63;16.88;;;;;;;1.46;100.00;102638.91;5071525;28;20108;-79
2023/01/03 03:25:32;;;;;;;36.83;17.67;;;;;;;1.47;100.00;102638.09;5075745;28;20043;-79
2023/01/03 03:30:50;;;;;;;36.10;17.30;;;;;;;1.55;100.00;102636.72;5071105;28;20031;-79
2023/01/03 03:33:19;;;;;;;34.58;18.08;;;;;;;1.51;100.00;102639.97;5066321;28;20481;-79
2023/01/03 03:35:56;;;;;;;35.22;17.40;;;;;;;1.49;100.00;102636.47;5072454;28;20028;-79
2023/01/03 03:38:29;;;;;;;33.20;17.33;;;;;;;1.53;100.00;102643.47;5071264;28;20036;-79
2023/01/03 03:46:45;;;;;;;37.13;18.00;;;;;;;1.34;100.00;102611.00;5069058;28;20711;-78
2023/01/03 03:49:37;;;;;;;34.90;17.77;;;;;;;1.59;100.00;102643.75;5066313;28;20068;-78
2023/01/03 03:52:07;;;;;;;37.15;18.42;;;;;;;1.59;100.00;102648.00;5062153;28;20024;-78
2023/01/03 03:54:37;;;;;;;35.85;18.63;;;;;;;1.56;100.00;102648.75;5057589;28;20024;-78
2023/01/03 03:57:12;;;;;;;34.42;17.75;;;;;;;1.51;100.00;102634.84;5069063;28;20025;-79
2023/01/03 03:59:43;;;;;;;36.15;17.98;;;;;;;1.44;100.00;102630.25;5070855;28;20033;-79
2023/01/03 04:02:12;;;;;;;41.20;18.30;;;;;;;1.47;100.00;102637.19;5072318;28;20021;-79
2023/01/03 04:04:43;;;;;;;37.05;18.55;;;;;;;1.51;100.00;102647.69;5065299;28;20502;-78
2023/01/03 04:07:09;;;;;;;40.17;17.10;;;;;;;1.45;100.00;102637.16;5071236;28;20464;-79
2023/01/03 04:09:35;;;;;;;39.78;18.33;;;;;;;1.42;100.00;102639.59;5071764;28;20093;-79
2023/01/03 04:12:00;;;;;;;37.22;18.20;;;;;;;1.42;100.00;102643.84;5070381;28;20468;-78
2023/01/03 04:14:25;;;;;;;38.00;18.60;;;;;;;1.38;100.00;102645.41;5067456;28;20103;-79
2023/01/03 04:16:50;;;;;;;38.95;17.20;;;;;;;1.29;100.00;102635.63;5069461;28;20025;-79
2023/01/03 04:19:16;;;;;;;41.10;18.55;;;;;;;1.33;100.00;102649.47;5068172;28;20021;-79
2023/01/03 04:21:41;;;;;;;42.35;18.98;;;;;;;1.33;100.00;102647.78;5060058;28;20029;-79
2023/01/03 04:24:07;;;;;;;36.78;18.52;;;;;;;1.31;100.00;102651.13;5071310;28;20376;-78
2023/01/03 04:26:32;;;;;;;40.78;18.73;;;;;;;1.14;100.00;102623.00;5083970;28;20074;-78
2023/01/03 04:28:57;;;;;;;43.28;19.33;;;;;;;1.17;100.00;102630.81;5072001;28;20025;-79
2023/01/03 04:31:22;;;;;;;43.60;19.60;;;;;;;1.24;100.00;102651.63;5068166;28;20410;-78
2023/01/03 04:33:49;;;;;;;40.95;19.95;;;;;;;1.13;100.00;102638.31;5066386;28;20037;-78
2023/01/03 04:36:14;;;;;;;39.33;20.02;;;;;;;1.15;100.00;102642.72;5063972;28;20040;-78
2023/01/03 04:38:40;;;;;;;35.85;20.23;;;;;;;1.14;100.00;102632.38;5063863;28;20032;-78
2023/01/03 04:41:07;;;;;;;39.33;19.75;;;;;;;1.14;100.00;102643.53;5073399;28;20380;-79
2023/01/03 04:46:16;;;;;;;42.33;19.17;;;;;;;1.10;100.00;102646.75;5070700;28;20507;-79
2023/01/03 04:48:42;;;;;;;42.70;20.80;;;;;;;1.13;100.00;102651.16;5066574;28;20112;-78
2023/01/03 04:51:07;;;;;;;45.20;21.25;;;;;;;1.13;100.00;102648.59;5065332;28;20495;-78
2023/01/03 04:53:32;;;;;;;49.90;23.00;;;;;;;1.12;100.00;102647.72;5059564;28;20063;-78
2023/01/03 04:55:58;;;;;;;55.65;22.05;;;;;;;1.18;100.00;102652.25;5072637;28;20849;-78
2023/01/03 04:58:24;;;;;;;50.85;21.92;;;;;;;1.17;100.00;102646.22;5072280;28;20120;-78
2023/01/03 05:00:50;;;;;;;48.17;21.85;;;;;;;1.15;100.00;102640.16;5065037;28;20031;-79
2023/01/03 05:03:15;;;;;;;52.28;22.95;;;;;;;1.15;100.00;102642.72;5059628;28;20099;-78
2023/01/03 05:05:41;;;;;;;54.70;22.60;;;;;;;1.30;100.00;102637.34;5057148;28;20060;-78
2023/01/03 05:08:08;;;;;;;48.78;22.27;;;;;;;1.25;100.00;102608.03;5068444;28;20077;-78
2023/01/03 05:10:34;;;;;;;52.03;22.85;;;;;;;1.28;100.00;102630.41;5072718;28;20031;-78
2023/01/03 05:12:59;;;;;;;50.20;22.75;;;;;;;1.27;100.00;102628.63;5064626;28;20025;-78
2023/01/03 05:15:30;;;;;;;46.28;22.02;;;;;;;1.29;100.00;102635.63;5056473;28;20496;-78
2023/01/03 05:17:55;;;;;;;50.55;21.73;;;;;;;1.24;100.00;102625.94;5058658;28;20029;-79
2023/01/03 05:25:50;;;;;;;;;;;;;;;1.27;100.00;102636.34;5068331;28;20083;-78
2023/01/03 05:28:18;;;;;;;44.03;20.40;;;;;;;1.28;100.00;102623.59;5069937;28;21086;-78
2023/01/03 05:30:43;;;;;;;50.50;20.63;;;;;;;1.31;100.00;102622.84;5070955;28;20024;-78
2023/01/03 05:33:09;;;;;;;48.80;21.30;;;;;;;1.34;100.00;102617.81;5062125;28;20033;-78
2023/01/03 05:35:34;;;;;;;52.03;20.90;;;;;;;1.30;100.00;102606.53;5067884;28;20112;-78
2023/01/03 05:37:59;;;;;;;52.13;20.25;;;;;;;1.35;100.00;102604.16;5059069;28;20044;-78
2023/01/03 05:40:24;;;;;;;49.65;20.50;;;;;;;1.34;100.00;102594.69;5069211;28;20028;-78
2023/01/03 05:42:50;;;;;;;51.90;21.33;;;;;;;1.44;100.00;102603.66;5070978;28;20096;-78
2023/01/03 05:45:15;;;;;;;44.03;18.40;;;;;;;1.50;100.00;102615.06;5071863;28;20017;-79
2023/01/03 05:47:41;;;;;;;47.92;19.60;;;;;;;1.44;100.00;102602.00;5064008;28;20025;-79
2023/01/03 05:50:06;;;;;;;50.58;20.15;;;;;;;1.53;100.00;102620.34;5053323;28;20035;-78
2023/01/03 05:52:32;;;;;;;52.25;19.45;;;;;;;1.57;100.00;102619.69;5056037;28;20021;-79
2023/01/03 05:54:57;;;;;;;54.20;20.35;;;;;;;1.68;100.00;102617.53;5058018;28;20464;-79
2023/01/03 05:57:22;;;;;;;48.67;20.45;;;;;;;1.73;100.00;102604.88;5065942;28;20126;-79
2023/01/03 05:59:47;;;;;;;54.45;20.38;;;;;;;1.87;100.00;102598.59;5063304;28;20034;-78
2023/01/03 06:02:13;;;;;;;60.63;21.73;;;;;;;2.02;100.00;102606.91;5058793;28;20036;-78
2023/01/03 06:04:38;;;;;;;59.00;20.85;;;;;;;2.14;100.00;102613.38;5062570;28;20527;-78
2023/01/03 06:07:03;;;;;;;46.00;20.05;;;;;;;2.13;100.00;102584.22;5070065;28;20044;-78
2023/01/03 06:09:28;;;;;;;60.72;22.30;;;;;;;2.28;100.00;102600.22;5070092;28;20443;-78
2023/01/03 06:11:54;;;;;;;55.90;20.77;;;;;;;2.37;100.00;102599.72;5066599;28;20060;-78
2023/01/03 06:14:19;;;;;;;63.75;21.60;;;;;;;2.46;100.00;102596.63;5069636;28;20059;-78
2023/01/03 06:19:29;;;;;;;53.17;19.67;;;;;;;2.63;100.00;102590.38;5070673;28;20051;-79
2023/01/03 06:21:54;;;;;;;55.42;21.02;;;;;;;2.70;100.00;102591.50;5066884;28;20024;-79
2023/01/03 06:24:19;;;;;;;54.17;20.90;;;;;;;2.73;100.00;102594.19;5065975;28;20028;-79
2023/01/03 06:26:45;;;;;;;53.05;20.08;;;;;;;2.76;100.00;102584.88;5071545;28;20028;-78
2023/01/03 06:29:10;;;;;;;55.97;20.70;;;;;;;2.81;100.00;102590.16;5069887;28;20044;-79
2023/01/03 06:31:35;;;;;;;54.83;20.45;;;;;;;2.84;100.00;102592.00;5073125;28;20028;-78
2023/01/03 06:34:02;;;;;;;53.30;20.42;;;;;;;2.83;100.00;102575.66;5073057;28;20036;-78
2023/01/03 06:36:27;;;;;;;52.97;19.90;;;;;;;2.85;100.00;102583.47;5074324;28;20059;-78
2023/01/03 06:38:53;;;;;;;48.90;19.58;;;;;;;2.83;100.00;102585.09;5068900;28;20060;-78
2023/01/03 06:41:19;;;;;;;49.92;19.48;;;;;;;2.77;100.00;102585.75;5069064;28;20956;-79
2023/01/03 06:43:44;;;;;;;50.53;19.20;;;;;;;2.67;100.00;102578.50;5066873;28;20138;-78
2023/01/03 06:54:23;;;;;;;;;;;;;;;2.72;100.00;102561.53;5070726;28;20044;-78
2023/01/03 06:56:52;;;;;;;46.33;18.00;;;;;;;2.77;100.00;102557.41;5068604;28;21172;-78
2023/01/03 06:59:19;;;;;;;51.22;19.38;;;;;;;2.74;100.00;102565.03;5068805;28;20326;-78
2023/01/03 07:01:46;;;;;;;50.55;19.67;;;;;;;2.54;100.00;102547.16;5067354;28;20480;-78
2023/01/03 07:04:12;;;;;;;51.05;20.60;;;;;;;2.68;100.00;102573.44;5063675;28;20020;-78
2023/01/03 07:06:38;;;;;;;52.50;19.48;;;;;;;2.55;100.00;102566.94;5067200;28;20056;-78
2023/01/03 07:09:03;;;;;;;55.05;18.90;;;;;;;2.61;100.00;102583.41;5068379;28;20396;-78
2023/01/03 07:11:29;;;;;;;46.92;18.60;;;;;;;2.58;100.00;102564.47;5070138;28;20153;-77
2023/01/03 07:13:57;;;;;;;48.05;19.75;;;;;;;2.62;100.00;102587.78;5069845;28;20110;-78
2023/01/03 07:16:23;;;;;;;54.15;19.13;;;;;;;2.78;100.00;102614.16;5059261;28;20017;-79
2023/01/03 07:18:49;;;;;;;58.25;20.33;;;;;;;2.94;100.00;102614.69;5069705;28;20035;-79
2023/01/03 07:21:14;;;;;;;57.33;20.45;;;;;;;3.04;100.00;102604.78;5065911;28;20024;-79
2023/01/03 07:23:39;;;;;;;61.88;20.70;;;;;;;3.16;100.00;102608.59;5064301;28;20032;-78
2023/01/03 07:26:05;;;;;;;59.83;20.83;;;;;;;3.25;100.00;102607.22;5064336;28;20029;-79
2023/01/03 07:28:30;;;;;;;64.95;20.58;;;;;;;3.30;100.00;102609.94;5066249;28;20563;-78
2023/01/03 07:31:14;;;;;;;65.38;22.13;;;;;;;3.33;100.00;102598.88;5070706;28;20042;-78
2023/01/03 07:33:39;;;;;;;67.47;21.75;;;;;;;3.42;100.00;102612.94;5069641;28;20020;-79
2023/01/03 07:36:08;;;;;;;67.68;21.23;;;;;;;3.41;100.00;102612.91;5068596;28;20025;-79
2023/01/03 07:38:34;;;;;;;68.43;22.38;;;;;;;3.40;100.00;102596.56;5068329;28;20029;-79
2023/01/03 07:41:00;;;;;;;64.30;21.20;;;;;;;3.47;100.00;102608.84;5071405;28;20487;-78
2023/01/03 07:43:35;;;;;;;74.80;21.83;;;;;;;3.48;100.00;102614.88;5066647;28;20476;-78
2023/01/03 07:46:14;;;;;;;70.40;21.67;;;;;;;3.47;100.00;102613.13;5065536;28;20028;-78
2023/01/03 07:48:40;;;;;;;64.60;20.55;;;;;;;3.47;100.00;102611.44;5064607;28;20021;-78
2023/01/03 07:51:07;;;;;;;69.68;22.42;;;;;;;3.38;100.00;102597.34;5064658;28;20036;-78
2023/01/03 07:53:34;;;;;;;67.38;21.55;;;;;;;3.45;100.00;102618.22;5062016;28;20231;-78
2023/01/03 07:56:10;;;;;;;78.68;22.50;;;;;;;3.32;100.00;102610.88;5063967;28;20029;-78
2023/01/03 07:58:36;;;;;;;67.13;21.30;;;;;;;3.27;100.00;102609.88;5066630;28;20143;-78
2023/01/03 08:01:10;;;;;;;71.35;22.70;;;;;;;3.32;100.00;102618.63;5067374;28;20107;-78
2023/01/03 08:03:36;;;;;;;67.25;21.77;;;;;;;3.29;100.00;102626.25;5067590;28;20089;-78
2023/01/03 08:06:05;;;;;;;64.15;21.15;;;;;;;3.31;100.00;102636.63;5068230;28;20090;-78
2023/01/03 08:08:31;;;;;;;73.20;22.27;;;;;;;3.39;100.00;102637.75;5062523;28;20016;-78
2023/01/03 08:13:42;;;;;;;76.55;22.77;;;;;;;3.48;100.00;102632.94;5061073;28;20384;-78
2023/01/03 08:16:10;;;;;;;75.80;22.85;;;;;;;3.57;100.00;102640.09;5059287;28;20021;-78
2023/01/03 08:18:36;;;;;;;79.05;24.48;;;;;;;3.68;100.00;102643.91;5063865;28;20622;-78
2023/01/03 08:21:02;;;;;;;79.55;24.92;;;;;;;3.66;100.00;102636.13;5064530;28;20021;-80
2023/01/03 08:23:28;;;;;;;88.80;24.83;;;;;;;3.79;100.00;102647.72;5067076;28;20089;-81
2023/01/03 08:26:10;;;;;;;78.90;24.55;;;;;;;3.84;100.00;102645.31;5060747;28;20031;-79
2023/01/03 08:28:35;;;;;;;96.32;26.10;;;;;;;3.82;100.00;102627.19;5065704;28;20123;-78
2023/01/03 08:31:06;;;;;;;95.53;26.85;;;;;;;4.00;100.00;102650.16;5068366;28;20171;-80
2023/01/03 08:33:38;;;;;;;99.90;26.25;;;;;;;4.04;100.00;102638.22;5059313;28;20539;-80
2023/01/03 08:36:06;;;;;;;99.97;26.83;;;;;;;4.04;100.00;102638.22;5065370;28;20390;-80
2023/01/03 08:38:47;;;;;;;95.63;26.70;;;;;;;4.07;100.00;102631.44;5066022;28;20089;-80
2023/01/03 08:41:18;;;;;;;85.63;27.25;;;;;;;4.14;100.00;102645.41;5062111;28;20068;-80
2023/01/03 08:43:46;;;;;;;90.30;28.08;;;;;;;4.20;100.00;102651.66;5065102;28;20037;-80
2023/01/03 08:46:14;;;;;;;95.00;27.30;;;;;;;4.31;100.00;102662.31;5066405;28;20024;-80
2023/01/03 08:48:40;;;;;;;93.40;27.85;;;;;;;4.33;100.00;102659.78;5066013;28;20496;-80
2023/01/03 08:51:05;;;;;;;92.80;26.95;;;;;;;4.41;100.00;102664.38;5066805;28;20133;-80
2023/01/03 08:53:31;;;;;;;101.82;27.67;;;;;;;4.43;100.00;102657.53;5069066;28;20024;-81
2023/01/03 08:55:56;;;;;;;100.13;28.60;;;;;;;4.53;100.00;102665.56;5068398;28;20028;-80
2023/01/03 08:58:21;;;;;;;101.40;28.10;;;;;;;4.45;100.00;102653.31;5067040;28;20052;-80
2023/01/03 09:00:47;;;;;;;98.70;27.60;;;;;;;4.59;100.00;102665.75;5068425;28;20025;-80
2023/01/03 09:03:12;;;;;;;98.97;28.20;;;;;;;4.60;100.00;102672.66;5066888;28;20162;-79
2023/01/03 09:05:37;;;;;;;98.13;28.00;;;;;;;4.63;100.00;102670.19;5064630;28;20503;-79
2023/01/03 09:08:03;;;;;;;98.75;28.80;;;;;;;4.60;100.00;102659.75;5069652;28;20036;-79
2023/01/03 09:10:28;;;;;;;94.68;28.05;;;;;;;4.65;100.00;102671.13;5067704;28;20032;-79
2023/01/03 09:12:53;;;;;;;95.82;27.45;;;;;;;4.68;100.00;102671.22;5068590;28;20137;-79
2023/01/03 09:15:19;;;;;;;106.55;29.35;;;;;;;4.69;100.00;102676.41;5068980;28;20033;-79
2023/01/03 09:17:46;;;;;;;100.57;28.65;;;;;;;4.68;100.00;102677.25;5067912;28;20585;-79
2023/01/03 09:20:12;;;;;;;91.70;26.48;;;;;;;4.74;100.00;102679.16;5058482;28;20452;-80
2023/01/03 09:22:38;;;;;;;102.85;28.75;;;;;;;4.74;100.00;102676.56;5060308;28;20025;-79
2023/01/03 09:25:04;;;;;;;100.72;28.23;;;;;;;4.77;100.00;102681.78;5063642;28;20032;-79
2023/01/03 09:27:30;;;;;;;96.00;28.75;;;;;;;4.78;100.00;102677.53;5068966;28;20028;-79
2023/01/03 09:29:55;;;;;;;99.70;28.48;;;;;;;4.80;100.00;102676.72;5068483;28;20514;-79
2023/01/03 09:32:20;;;;;;;93.07;26.98;;;;;;;4.85;100.00;102676.88;5060489;28;20461;-79
2023/01/03 09:34:45;;;;;;;90.75;27.00;;;;;;;4.85;100.00;102663.94;5058190;28;20112;-79
2023/01/03 09:37:11;;;;;;;100.55;27.27;;;;;;;4.92;100.00;102668.47;5067787;28;20043;-79
2023/01/03 09:39:39;;;;;;;97.05;26.67;;;;;;;4.82;100.00;102653.53;5056299;28;20473;-80
2023/01/03 09:44:49;;;;;;;91.85;26.20;;;;;;;5.00;100.00;102673.84;5068067;28;20089;-79
2023/01/03 09:47:25;;;;;;;89.47;25.38;;;;;;;5.05;100.00;102685.19;5066939;28;20025;-80
2023/01/03 09:49:53;;;;;;;89.90;24.92;;;;;;;5.06;100.00;102684.34;5069602;28;20025;-82
2023/01/03 10:04:27;;;;;;;;;;;;;;;5.24;100.00;102671.09;5061569;28;20044;-84
2023/01/03 10:07:23;;;;;;;75.20;22.55;;;;;;;5.30;100.00;102666.09;5068832;28;20342;-82
2023/01/03 10:10:12;;;;;;;74.28;21.35;;;;;;;5.39;100.00;102663.72;5069505;28;20029;-81
2023/01/03 10:12:57;;;;;;;70.82;21.67;;;;;;;5.45;100.00;102666.47;5059496;28;20032;-81
2023/01/03 10:15:55;;;;;;;89.47;23.60;;;;;;;5.51;100.00;102665.78;5059750;28;20025;-82
2023/01/03 10:18:33;;;;;;;79.80;22.35;;;;;;;5.56;100.00;102670.25;5069833;28;20028;-81
2023/01/03 10:21:08;;;;;;;75.15;21.42;;;;;;;5.58;100.00;102673.72;5066026;28;20036;-82
2023/01/03 10:23:34;;;;;;;65.57;20.15;;;;;;;5.54;100.00;102666.72;5060115;28;20033;-82
2023/01/03 10:26:00;;;;;;;225.07;31.20;;;;;;;5.63;100.00;102671.28;5059009;28;20377;-82
2023/01/03 10:28:32;;;;;;;95.13;24.08;;;;;;;5.68;100.00;102674.84;5058272;28;20021;-82
2023/01/03 10:31:00;;;;;;;68.13;21.00;;;;;;;5.76;100.00;102672.47;5062753;28;20396;-82
2023/01/03 10:33:46;;;;;;;65.90;20.27;;;;;;;5.80;100.00;102670.00;5065643;28;20024;-82
2023/01/03 10:36:13;;;;;;;59.30;20.27;;;;;;;5.84;100.00;102660.59;5056865;28;20476;-82
2023/01/03 10:38:39;;;;;;;61.05;19.48;;;;;;;5.91;100.00;102664.22;5069965;28;20036;-81
2023/01/03 10:41:15;;;;;;;62.10;20.48;;;;;;;5.94;100.00;102670.38;5060781;28;20068;-81
2023/01/03 10:43:42;;;;;;;61.03;20.10;;;;;;;5.96;100.00;102658.34;5059758;28;20028;-81
2023/01/03 10:46:17;;;;;;;55.70;18.50;;;;;;;5.99;100.00;102666.19;5071620;28;20024;-82
2023/01/03 10:48:48;;;;;;;55.42;19.00;;;;;;;6.07;100.00;102668.97;5071332;28;20020;-82
2023/01/03 10:51:34;;;;;;;53.83;19.23;;;;;;;6.06;100.00;102660.31;5066527;28;20480;-82
2023/01/03 10:54:10;;;;;;;49.17;17.98;;;;;;;6.08;100.00;102665.53;5064498;28;20048;-82
2023/01/03 10:56:36;;;;;;;56.92;19.05;;;;;;;6.05;100.00;102661.16;5070526;28;20032;-81
2023/01/03 10:59:14;;;;;;;55.17;18.73;;;;;;;6.09;100.00;102662.13;5070862;28;20017;-82
2023/01/03 11:01:54;;;;;;;48.80;18.40;;;;;;;6.04;100.00;102661.13;5068439;28;20061;-82
2023/01/03 11:04:19;;;;;;;49.72;19.05;;;;;;;6.05;100.00;102658.56;5074102;28;20039;-82
2023/01/03 11:07:03;;;;;;;52.50;18.40;;;;;;;6.06;100.00;102651.69;5074986;28;20044;-81
2023/01/03 11:09:52;;;;;;;45.97;16.77;;;;;;;6.05;100.00;102656.00;5074347;28;20024;-82
2023/01/03 11:12:40;;;;;;;41.10;16.08;;;;;;;6.06;100.00;102651.69;5069763;28;20100;-81
2023/01/03 11:15:29;;;;;;;45.70;16.67;;;;;;;6.08;100.00;102650.88;5061930;28;20016;-81
2023/01/03 11:17:58;;;;;;;42.28;16.27;;;;;;;6.09;100.00;102651.75;5074540;28;20035;-82
2023/01/03 11:20:47;;;;;;;39.90;15.32;;;;;;;6.05;100.00;102645.63;5073876;28;20064;-82
2023/01/03 11:23:49;;;;;;;40.03;15.07;;;;;;;6.09;100.00;102656.94;5020686;28;20063;-82
2023/01/03 11:26:26;;;;;;;34.20;14.88;;;;;;;6.07;100.00;102656.00;5069729;28;20064;-82
2023/01/03 11:28:57;;;;;;;39.60;15.23;;;;;;;6.08;100.00;102653.47;5066676;28;20029;-82
2023/01/03 11:31:39;;;;;;;39.53;14.45;;;;;;;6.05;100.00;102649.94;5069192;28;20090;-82
2023/01/03 11:34:10;;;;;;;37.47;13.57;;;;;;;6.08;100.00;102657.75;5073910;28;20029;-81
2023/01/03 11:36:50;;;;;;;31.55;13.63;;;;;;;6.05;100.00;102653.41;5074747;28;20031;-82
2023/01/03 11:39:25;;;;;;;34.60;13.73;;;;;;;6.02;100.00;102655.91;5073951;28;20037;-82
2023/01/03 11:41:58;;;;;;;27.13;13.38;;;;;;;5.97;100.00;102651.44;5073987;28;20021;-82
2023/01/03 11:44:41;;;;;;;31.83;15.00;;;;;;;5.96;100.00;102649.72;5074179;28;20032;-81
2023/01/03 11:47:15;;;;;;;32.58;14.70;;;;;;;5.96;100.00;102652.31;5073692;28;20115;-81
2023/01/03 11:49:53;;;;;;;38.97;15.73;;;;;;;5.94;100.00;102649.66;5074241;28;20028;-81
2023/01/03 11:52:48;;;;;;;38.03;15.70;;;;;;;5.95;100.00;102645.34;5073819;28;20024;-82
2023/01/03 11:55:41;;;;;;;30.55;15.15;;;;;;;6.03;100.00;102651.59;5068939;28;20488;-81
2023/01/03 11:58:53;;;;;;;39.53;17.08;;;;;;;6.12;100.00;102632.84;5074350;28;20131;-81
2023/01/03 12:01:47;;;;;;;38.95;15.48;;;;;;;6.22;100.00;102638.25;5057852;28;20040;-82
2023/01/03 12:05:10;;;;;;;39.78;15.30;;;;;;;6.27;100.00;102628.84;5071644;28;20022;-81
2023/01/03 12:08:11;;;;;;;29.65;14.30;;;;;;;6.25;100.00;102622.78;4974979;28;20125;-82
2023/01/03 12:10:53;;;;;;;27.67;12.38;;;;;;;6.16;100.00;102614.81;4986152;28;20046;-82
2023/01/03 12:13:30;;;;;;;23.17;12.05;;;;;;;6.17;100.00;102613.94;5055154;28;20052;-82
2023/01/03 12:16:11;;;;;;;26.77;13.05;;;;;;;6.23;100.00;102615.81;5064261;28;20067;-82
2023/01/03 12:18:47;;;;;;;26.50;11.68;;;;;;;6.23;100.00;102603.72;5071948;28;20024;-82
2023/01/03 12:21:31;;;;;;;22.00;11.32;;;;;;;6.27;100.00;102597.78;5073133;28;20027;-82
2023/01/03 12:24:00;;;;;;;21.00;11.77;;;;;;;6.33;100.00;102584.09;5073480;28;20103;-82
2023/01/03 12:26:26;;;;;;;21.80;10.98;;;;;;;6.44;100.00;102592.09;5072882;28;20032;-82